sensor_id;sensor_type;location;lat;lon;timestamp;P1;durP1;ratioP1;P2;durP2;ratioP2
19869;SDS011;10097;50.862;4.696;2024-03-02T00:00:25;1.70;;;0.30;;
19869;SDS011;10097;50.862;4.696;2024-03-02T00:02:52;1.83;;;0.40;;
19869;SDS011;10097;50.862;4.696;2024-03-02T00:05:18;0.77;;;0.20;;
19869;SDS011;10097;50.862;4.696;2024-03-02T00:07:47;1.53;;;0.43;;
19869;SDS011;10097;50.862;4.696;2024-03-02T00:10:19;1.20;;;0.20;;
19869;SDS011;10097;50.862;4.696;2024-03-02T00:12:50;1.17;;;0.30;;
19869;SDS011;10097;50.862;4.696;2024-03-02T00:17:56;1.03;;;0.30;;
19869;SDS011;10097;50.862;4.696;2024-03-02T00:20:24;3.40;;;0.53;;
19869;SDS011;10097;50.862;4.696;2024-03-02T00:22:55;2.97;;;0.43;;
19869;SDS011;10097;50.862;4.696;2024-03-02T00:25:35;1.40;;;0.27;;
19869;SDS011;10097;50.862;4.696;2024-03-02T00:28:04;1.17;;;0.40;;
19869;SDS011;10097;50.862;4.696;2024-03-02T00:30:51;3.87;;;0.40;;
19869;SDS011;10097;50.862;4.696;2024-03-02T00:33:20;0.97;;;0.50;;
19869;SDS011;10097;50.862;4.696;2024-03-02T00:35:46;1.10;;;0.30;;
19869;SDS011;10097;50.862;4.696;2024-03-02T00:38:12;2.50;;;0.53;;
19869;SDS011;10097;50.862;4.696;2024-03-02T00:40:40;2.10;;;0.50;;
19869;SDS011;10097;50.862;4.696;2024-03-02T00:43:09;2.00;;;0.30;;
19869;SDS011;10097;50.862;4.696;2024-03-02T00:45:55;3.03;;;0.63;;
19869;SDS011;10097;50.862;4.696;2024-03-02T00:48:22;4.67;;;0.80;;
19869;SDS011;10097;50.862;4.696;2024-03-02T00:50:50;2.90;;;0.60;;
19869;SDS011;10097;50.862;4.696;2024-03-02T00:53:17;2.37;;;0.30;;
19869;SDS011;10097;50.862;4.696;2024-03-02T00:55:51;1.53;;;0.40;;
19869;SDS011;10097;50.862;4.696;2024-03-02T00:58:17;2.20;;;0.80;;
19869;SDS011;10097;50.862;4.696;2024-03-02T01:00:43;2.33;;;0.40;;
19869;SDS011;10097;50.862;4.696;2024-03-02T01:03:08;2.33;;;0.40;;
19869;SDS011;10097;50.862;4.696;2024-03-02T01:05:35;1.97;;;0.60;;
19869;SDS011;10097;50.862;4.696;2024-03-02T01:08:01;1.20;;;0.30;;
19869;SDS011;10097;50.862;4.696;2024-03-02T01:10:27;1.40;;;0.40;;
19869;SDS011;10097;50.862;4.696;2024-03-02T01:12:53;1.93;;;0.40;;
19869;SDS011;10097;50.862;4.696;2024-03-02T01:15:19;1.53;;;0.50;;
19869;SDS011;10097;50.862;4.696;2024-03-02T01:17:44;1.23;;;0.40;;
19869;SDS011;10097;50.862;4.696;2024-03-02T01:20:10;1.83;;;0.37;;
19869;SDS011;10097;50.862;4.696;2024-03-02T01:22:36;2.67;;;0.30;;
19869;SDS011;10097;50.862;4.696;2024-03-02T01:25:02;0.83;;;0.20;;
19869;SDS011;10097;50.862;4.696;2024-03-02T01:27:28;2.57;;;0.20;;
19869;SDS011;10097;50.862;4.696;2024-03-02T01:29:54;1.10;;;0.40;;
19869;SDS011;10097;50.862;4.696;2024-03-02T01:32:20;0.73;;;0.20;;
19869;SDS011;10097;50.862;4.696;2024-03-02T01:34:45;0.97;;;0.30;;
19869;SDS011;10097;50.862;4.696;2024-03-02T01:37:12;0.57;;;0.20;;
19869;SDS011;10097;50.862;4.696;2024-03-02T01:39:38;0.80;;;0.20;;
19869;SDS011;10097;50.862;4.696;2024-03-02T01:42:03;3.80;;;0.90;;
19869;SDS011;10097;50.862;4.696;2024-03-02T01:44:29;0.80;;;0.30;;
19869;SDS011;10097;50.862;4.696;2024-03-02T01:46:55;1.53;;;0.40;;
19869;SDS011;10097;50.862;4.696;2024-03-02T01:49:20;1.20;;;0.33;;
19869;SDS011;10097;50.862;4.696;2024-03-02T01:51:46;1.47;;;0.37;;
19869;SDS011;10097;50.862;4.696;2024-03-02T01:54:12;4.00;;;0.40;;
19869;SDS011;10097;50.862;4.696;2024-03-02T01:56:37;0.30;;;0.20;;
19869;SDS011;10097;50.862;4.696;2024-03-02T01:59:03;1.80;;;0.20;;
19869;SDS011;10097;50.862;4.696;2024-03-02T02:01:29;0.73;;;0.40;;
19869;SDS011;10097;50.862;4.696;2024-03-02T02:03:54;1.87;;;0.30;;
19869;SDS011;10097;50.862;4.696;2024-03-02T02:06:20;2.97;;;0.60;;
19869;SDS011;10097;50.862;4.696;2024-03-02T02:08:46;2.07;;;0.40;;
19869;SDS011;10097;50.862;4.696;2024-03-02T02:11:14;3.40;;;0.53;;
19869;SDS011;10097;50.862;4.696;2024-03-02T02:13:41;2.23;;;0.60;;
19869;SDS011;10097;50.862;4.696;2024-03-02T02:16:07;0.97;;;0.40;;
19869;SDS011;10097;50.862;4.696;2024-03-02T02:18:33;2.67;;;0.30;;
19869;SDS011;10097;50.862;4.696;2024-03-02T02:20:59;1.10;;;0.40;;
19869;SDS011;10097;50.862;4.696;2024-03-02T02:23:24;2.93;;;0.53;;
19869;SDS011;10097;50.862;4.696;2024-03-02T02:25:50;5.40;;;0.70;;
19869;SDS011;10097;50.862;4.696;2024-03-02T02:28:16;1.10;;;0.30;;
19869;SDS011;10097;50.862;4.696;2024-03-02T02:30:42;1.17;;;0.20;;
19869;SDS011;10097;50.862;4.696;2024-03-02T02:33:08;1.50;;;0.30;;
19869;SDS011;10097;50.862;4.696;2024-03-02T02:35:34;2.33;;;0.40;;
19869;SDS011;10097;50.862;4.696;2024-03-02T02:38:00;0.90;;;0.30;;
19869;SDS011;10097;50.862;4.696;2024-03-02T02:40:26;4.30;;;0.37;;
19869;SDS011;10097;50.862;4.696;2024-03-02T02:42:54;0.60;;;0.20;;
19869;SDS011;10097;50.862;4.696;2024-03-02T02:45:20;0.67;;;0.23;;
19869;SDS011;10097;50.862;4.696;2024-03-02T02:47:45;1.07;;;0.20;;
19869;SDS011;10097;50.862;4.696;2024-03-02T02:50:11;2.90;;;0.40;;
19869;SDS011;10097;50.862;4.696;2024-03-02T02:52:38;2.93;;;0.60;;
19869;SDS011;10097;50.862;4.696;2024-03-02T02:55:06;2.83;;;0.40;;
19869;SDS011;10097;50.862;4.696;2024-03-02T02:57:37;1.73;;;0.30;;
19869;SDS011;10097;50.862;4.696;2024-03-02T03:00:08;3.57;;;0.47;;
19869;SDS011;10097;50.862;4.696;2024-03-02T03:02:41;2.27;;;0.40;;
19869;SDS011;10097;50.862;4.696;2024-03-02T03:05:11;4.17;;;0.30;;
19869;SDS011;10097;50.862;4.696;2024-03-02T03:07:39;2.50;;;0.60;;
19869;SDS011;10097;50.862;4.696;2024-03-02T03:10:05;3.40;;;0.50;;
19869;SDS011;10097;50.862;4.696;2024-03-02T03:12:32;3.67;;;0.40;;
19869;SDS011;10097;50.862;4.696;2024-03-02T03:14:58;2.47;;;0.40;;
19869;SDS011;10097;50.862;4.696;2024-03-02T03:17:24;2.40;;;0.70;;
19869;SDS011;10097;50.862;4.696;2024-03-02T03:19:50;2.60;;;0.53;;
19869;SDS011;10097;50.862;4.696;2024-03-02T03:22:16;2.90;;;0.50;;
19869;SDS011;10097;50.862;4.696;2024-03-02T03:24:42;2.20;;;0.40;;
19869;SDS011;10097;50.862;4.696;2024-03-02T03:27:08;2.70;;;0.50;;
19869;SDS011;10097;50.862;4.696;2024-03-02T03:29:35;5.33;;;0.50;;
19869;SDS011;10097;50.862;4.696;2024-03-02T03:32:01;3.17;;;0.50;;
19869;SDS011;10097;50.862;4.696;2024-03-02T03:34:28;2.60;;;0.43;;
19869;SDS011;10097;50.862;4.696;2024-03-02T03:36:54;1.13;;;0.40;;
19869;SDS011;10097;50.862;4.696;2024-03-02T03:39:20;3.17;;;0.53;;
19869;SDS011;10097;50.862;4.696;2024-03-02T03:41:45;2.23;;;0.67;;
19869;SDS011;10097;50.862;4.696;2024-03-02T03:44:11;2.40;;;0.40;;
19869;SDS011;10097;50.862;4.696;2024-03-02T03:46:37;3.47;;;0.40;;
19869;SDS011;10097;50.862;4.696;2024-03-02T03:49:03;3.73;;;0.50;;
19869;SDS011;10097;50.862;4.696;2024-03-02T03:51:28;1.33;;;0.50;;
19869;SDS011;10097;50.862;4.696;2024-03-02T03:53:55;4.83;;;0.60;;
19869;SDS011;10097;50.862;4.696;2024-03-02T03:56:21;3.33;;;0.63;;
19869;SDS011;10097;50.862;4.696;2024-03-02T03:58:46;3.00;;;0.60;;
19869;SDS011;10097;50.862;4.696;2024-03-02T04:01:12;3.33;;;0.63;;
19869;SDS011;10097;50.862;4.696;2024-03-02T04:03:38;4.00;;;0.60;;
19869;SDS011;10097;50.862;4.696;2024-03-02T04:06:03;1.43;;;0.40;;
19869;SDS011;10097;50.862;4.696;2024-03-02T04:08:29;2.77;;;0.40;;
19869;SDS011;10097;50.862;4.696;2024-03-02T04:10:55;4.07;;;0.60;;
19869;SDS011;10097;50.862;4.696;2024-03-02T04:13:21;7.10;;;0.80;;
19869;SDS011;10097;50.862;4.696;2024-03-02T04:15:47;3.40;;;0.50;;
19869;SDS011;10097;50.862;4.696;2024-03-02T04:18:12;2.63;;;0.60;;
19869;SDS011;10097;50.862;4.696;2024-03-02T04:20:38;3.17;;;0.60;;
19869;SDS011;10097;50.862;4.696;2024-03-02T04:23:04;2.53;;;0.40;;
19869;SDS011;10097;50.862;4.696;2024-03-02T04:25:29;2.87;;;0.37;;
19869;SDS011;10097;50.862;4.696;2024-03-02T04:27:55;5.53;;;0.70;;
19869;SDS011;10097;50.862;4.696;2024-03-02T04:30:20;6.07;;;0.77;;
19869;SDS011;10097;50.862;4.696;2024-03-02T04:32:46;2.60;;;0.70;;
19869;SDS011;10097;50.862;4.696;2024-03-02T04:35:12;7.10;;;0.73;;
19869;SDS011;10097;50.862;4.696;2024-03-02T04:37:38;1.97;;;0.40;;
19869;SDS011;10097;50.862;4.696;2024-03-02T04:40:04;7.07;;;0.70;;
19869;SDS011;10097;50.862;4.696;2024-03-02T04:42:33;3.97;;;0.73;;
19869;SDS011;10097;50.862;4.696;2024-03-02T04:44:59;3.70;;;0.60;;
19869;SDS011;10097;50.862;4.696;2024-03-02T04:47:25;4.20;;;0.50;;
19869;SDS011;10097;50.862;4.696;2024-03-02T04:49:51;3.57;;;0.70;;
19869;SDS011;10097;50.862;4.696;2024-03-02T04:52:17;8.40;;;1.00;;
19869;SDS011;10097;50.862;4.696;2024-03-02T04:54:42;7.13;;;0.73;;
19869;SDS011;10097;50.862;4.696;2024-03-02T04:57:28;2.87;;;0.70;;
19869;SDS011;10097;50.862;4.696;2024-03-02T04:59:54;3.93;;;0.80;;
19869;SDS011;10097;50.862;4.696;2024-03-02T05:02:19;3.20;;;0.90;;
19869;SDS011;10097;50.862;4.696;2024-03-02T05:04:45;4.33;;;0.63;;
19869;SDS011;10097;50.862;4.696;2024-03-02T05:07:11;5.40;;;0.70;;
19869;SDS011;10097;50.862;4.696;2024-03-02T05:09:36;5.37;;;0.50;;
19869;SDS011;10097;50.862;4.696;2024-03-02T05:12:02;2.00;;;0.77;;
19869;SDS011;10097;50.862;4.696;2024-03-02T05:14:46;3.73;;;0.57;;
19869;SDS011;10097;50.862;4.696;2024-03-02T05:17:11;4.47;;;0.80;;
19869;SDS011;10097;50.862;4.696;2024-03-02T05:19:37;7.70;;;0.90;;
19869;SDS011;10097;50.862;4.696;2024-03-02T05:22:03;6.00;;;1.00;;
19869;SDS011;10097;50.862;4.696;2024-03-02T05:24:29;3.83;;;0.70;;
19869;SDS011;10097;50.862;4.696;2024-03-02T05:26:55;6.27;;;0.80;;
19869;SDS011;10097;50.862;4.696;2024-03-02T05:29:21;3.80;;;0.77;;
19869;SDS011;10097;50.862;4.696;2024-03-02T05:31:46;6.43;;;0.80;;
19869;SDS011;10097;50.862;4.696;2024-03-02T05:34:12;8.60;;;0.93;;
19869;SDS011;10097;50.862;4.696;2024-03-02T05:36:38;5.30;;;0.73;;
19869;SDS011;10097;50.862;4.696;2024-03-02T05:39:04;4.00;;;0.73;;
19869;SDS011;10097;50.862;4.696;2024-03-02T05:41:34;4.90;;;0.87;;
19869;SDS011;10097;50.862;4.696;2024-03-02T05:43:59;4.43;;;0.73;;
19869;SDS011;10097;50.862;4.696;2024-03-02T05:46:25;6.70;;;0.83;;
19869;SDS011;10097;50.862;4.696;2024-03-02T05:48:51;7.23;;;0.90;;
19869;SDS011;10097;50.862;4.696;2024-03-02T05:51:17;4.43;;;0.90;;
19869;SDS011;10097;50.862;4.696;2024-03-02T05:53:43;4.17;;;0.80;;
19869;SDS011;10097;50.862;4.696;2024-03-02T05:56:08;4.63;;;0.87;;
19869;SDS011;10097;50.862;4.696;2024-03-02T05:58:34;5.90;;;1.07;;
19869;SDS011;10097;50.862;4.696;2024-03-02T06:01:19;6.33;;;0.80;;
19869;SDS011;10097;50.862;4.696;2024-03-02T06:03:45;4.97;;;0.73;;
19869;SDS011;10097;50.862;4.696;2024-03-02T06:06:10;7.40;;;1.03;;
19869;SDS011;10097;50.862;4.696;2024-03-02T06:08:36;9.07;;;0.90;;
19869;SDS011;10097;50.862;4.696;2024-03-02T06:11:03;5.80;;;0.77;;
19869;SDS011;10097;50.862;4.696;2024-03-02T06:13:28;2.93;;;0.80;;
19869;SDS011;10097;50.862;4.696;2024-03-02T06:15:54;5.43;;;0.80;;
19869;SDS011;10097;50.862;4.696;2024-03-02T06:18:20;8.87;;;1.03;;
19869;SDS011;10097;50.862;4.696;2024-03-02T06:20:45;5.37;;;1.37;;
19869;SDS011;10097;50.862;4.696;2024-03-02T06:23:11;2.60;;;0.50;;
19869;SDS011;10097;50.862;4.696;2024-03-02T06:25:36;6.57;;;1.20;;
19869;SDS011;10097;50.862;4.696;2024-03-02T06:28:02;8.00;;;1.10;;
19869;SDS011;10097;50.862;4.696;2024-03-02T06:30:29;4.77;;;0.80;;
19869;SDS011;10097;50.862;4.696;2024-03-02T06:32:55;6.97;;;0.97;;
19869;SDS011;10097;50.862;4.696;2024-03-02T06:35:20;6.37;;;1.37;;
19869;SDS011;10097;50.862;4.696;2024-03-02T06:37:46;3.27;;;1.00;;
19869;SDS011;10097;50.862;4.696;2024-03-02T06:40:11;6.40;;;1.47;;
19869;SDS011;10097;50.862;4.696;2024-03-02T06:42:37;6.13;;;1.47;;
19869;SDS011;10097;50.862;4.696;2024-03-02T06:45:03;7.43;;;1.30;;
19869;SDS011;10097;50.862;4.696;2024-03-02T06:47:29;4.53;;;1.00;;
19869;SDS011;10097;50.862;4.696;2024-03-02T06:49:55;5.20;;;0.90;;
19869;SDS011;10097;50.862;4.696;2024-03-02T06:52:22;8.20;;;1.00;;
19869;SDS011;10097;50.862;4.696;2024-03-02T06:54:48;9.93;;;1.53;;
19869;SDS011;10097;50.862;4.696;2024-03-02T06:57:13;7.27;;;1.17;;
19869;SDS011;10097;50.862;4.696;2024-03-02T06:59:39;7.67;;;1.40;;
19869;SDS011;10097;50.862;4.696;2024-03-02T07:02:04;7.33;;;1.10;;
19869;SDS011;10097;50.862;4.696;2024-03-02T07:04:30;4.97;;;0.80;;
19869;SDS011;10097;50.862;4.696;2024-03-02T07:06:55;9.10;;;1.17;;
19869;SDS011;10097;50.862;4.696;2024-03-02T07:09:21;6.97;;;1.00;;
19869;SDS011;10097;50.862;4.696;2024-03-02T07:11:48;4.20;;;1.03;;
19869;SDS011;10097;50.862;4.696;2024-03-02T07:14:14;6.07;;;0.90;;
19869;SDS011;10097;50.862;4.696;2024-03-02T07:16:40;7.30;;;0.97;;
19869;SDS011;10097;50.862;4.696;2024-03-02T07:19:06;2.67;;;0.80;;
19869;SDS011;10097;50.862;4.696;2024-03-02T07:21:31;6.17;;;1.20;;
19869;SDS011;10097;50.862;4.696;2024-03-02T07:23:58;3.87;;;1.00;;
19869;SDS011;10097;50.862;4.696;2024-03-02T07:26:24;4.47;;;1.03;;
19869;SDS011;10097;50.862;4.696;2024-03-02T07:28:50;4.07;;;0.83;;
19869;SDS011;10097;50.862;4.696;2024-03-02T07:31:16;5.30;;;1.27;;
19869;SDS011;10097;50.862;4.696;2024-03-02T07:33:45;6.40;;;1.30;;
19869;SDS011;10097;50.862;4.696;2024-03-02T07:36:11;4.50;;;0.90;;
19869;SDS011;10097;50.862;4.696;2024-03-02T07:38:37;5.33;;;1.20;;
19869;SDS011;10097;50.862;4.696;2024-03-02T07:41:03;3.97;;;0.90;;
19869;SDS011;10097;50.862;4.696;2024-03-02T07:43:29;7.17;;;1.00;;
19869;SDS011;10097;50.862;4.696;2024-03-02T07:45:56;5.13;;;0.93;;
19869;SDS011;10097;50.862;4.696;2024-03-02T07:48:22;5.90;;;0.90;;
19869;SDS011;10097;50.862;4.696;2024-03-02T07:50:48;6.43;;;0.80;;
19869;SDS011;10097;50.862;4.696;2024-03-02T07:53:13;3.00;;;0.97;;
19869;SDS011;10097;50.862;4.696;2024-03-02T07:55:40;5.97;;;1.00;;
19869;SDS011;10097;50.862;4.696;2024-03-02T07:58:06;8.57;;;1.10;;
19869;SDS011;10097;50.862;4.696;2024-03-02T08:00:32;7.67;;;1.13;;
19869;SDS011;10097;50.862;4.696;2024-03-02T08:02:57;6.93;;;1.50;;
19869;SDS011;10097;50.862;4.696;2024-03-02T08:05:23;7.50;;;1.37;;
19869;SDS011;10097;50.862;4.696;2024-03-02T08:07:49;4.27;;;1.07;;
19869;SDS011;10097;50.862;4.696;2024-03-02T08:10:18;5.70;;;1.10;;
19869;SDS011;10097;50.862;4.696;2024-03-02T08:12:44;9.97;;;1.43;;
19869;SDS011;10097;50.862;4.696;2024-03-02T08:15:09;6.77;;;1.30;;
19869;SDS011;10097;50.862;4.696;2024-03-02T08:17:35;5.00;;;1.10;;
19869;SDS011;10097;50.862;4.696;2024-03-02T08:20:01;10.40;;;1.60;;
19869;SDS011;10097;50.862;4.696;2024-03-02T08:22:27;8.33;;;1.00;;
19869;SDS011;10097;50.862;4.696;2024-03-02T08:24:53;7.37;;;1.43;;
19869;SDS011;10097;50.862;4.696;2024-03-02T08:27:19;7.67;;;1.00;;
19869;SDS011;10097;50.862;4.696;2024-03-02T08:29:45;8.20;;;1.07;;
19869;SDS011;10097;50.862;4.696;2024-03-02T08:32:11;10.37;;;0.90;;
19869;SDS011;10097;50.862;4.696;2024-03-02T08:34:36;6.87;;;0.90;;
19869;SDS011;10097;50.862;4.696;2024-03-02T08:37:02;14.47;;;1.60;;
19869;SDS011;10097;50.862;4.696;2024-03-02T08:39:28;7.57;;;1.00;;
19869;SDS011;10097;50.862;4.696;2024-03-02T08:41:54;9.27;;;2.20;;
19869;SDS011;10097;50.862;4.696;2024-03-02T08:44:19;7.63;;;1.10;;
19869;SDS011;10097;50.862;4.696;2024-03-02T08:46:45;7.53;;;1.20;;
19869;SDS011;10097;50.862;4.696;2024-03-02T08:49:12;7.33;;;0.93;;
19869;SDS011;10097;50.862;4.696;2024-03-02T08:51:37;7.03;;;1.07;;
19869;SDS011;10097;50.862;4.696;2024-03-02T08:54:03;8.37;;;1.17;;
19869;SDS011;10097;50.862;4.696;2024-03-02T08:56:29;9.17;;;1.17;;
19869;SDS011;10097;50.862;4.696;2024-03-02T08:58:56;8.13;;;1.50;;
19869;SDS011;10097;50.862;4.696;2024-03-02T09:01:21;7.63;;;0.90;;
19869;SDS011;10097;50.862;4.696;2024-03-02T09:03:47;9.73;;;1.20;;
19869;SDS011;10097;50.862;4.696;2024-03-02T09:06:17;7.53;;;1.00;;
19869;SDS011;10097;50.862;4.696;2024-03-02T09:08:43;6.93;;;1.33;;
19869;SDS011;10097;50.862;4.696;2024-03-02T09:11:09;8.70;;;1.17;;
19869;SDS011;10097;50.862;4.696;2024-03-02T09:13:35;8.30;;;1.40;;
19869;SDS011;10097;50.862;4.696;2024-03-02T09:16:02;6.77;;;1.10;;
19869;SDS011;10097;50.862;4.696;2024-03-02T09:18:29;7.40;;;1.00;;
19869;SDS011;10097;50.862;4.696;2024-03-02T09:20:54;14.37;;;1.50;;
19869;SDS011;10097;50.862;4.696;2024-03-02T09:23:20;8.23;;;1.17;;
19869;SDS011;10097;50.862;4.696;2024-03-02T09:25:46;9.53;;;1.10;;
19869;SDS011;10097;50.862;4.696;2024-03-02T09:28:12;6.87;;;0.93;;
19869;SDS011;10097;50.862;4.696;2024-03-02T09:30:40;11.03;;;1.53;;
19869;SDS011;10097;50.862;4.696;2024-03-02T09:33:05;7.97;;;1.00;;
19869;SDS011;10097;50.862;4.696;2024-03-02T09:35:31;8.87;;;1.00;;
19869;SDS011;10097;50.862;4.696;2024-03-02T09:37:57;7.47;;;1.00;;
19869;SDS011;10097;50.862;4.696;2024-03-02T09:40:23;5.80;;;1.00;;
19869;SDS011;10097;50.862;4.696;2024-03-02T09:42:49;7.57;;;0.87;;
19869;SDS011;10097;50.862;4.696;2024-03-02T09:45:26;7.83;;;1.07;;
19869;SDS011;10097;50.862;4.696;2024-03-02T09:47:52;5.73;;;0.80;;
19869;SDS011;10097;50.862;4.696;2024-03-02T09:50:18;8.97;;;1.00;;
19869;SDS011;10097;50.862;4.696;2024-03-02T09:52:43;5.60;;;0.97;;
19869;SDS011;10097;50.862;4.696;2024-03-02T09:55:12;6.63;;;0.90;;
19869;SDS011;10097;50.862;4.696;2024-03-02T09:57:38;7.43;;;1.20;;
19869;SDS011;10097;50.862;4.696;2024-03-02T10:00:07;8.37;;;1.20;;
19869;SDS011;10097;50.862;4.696;2024-03-02T10:02:33;8.03;;;1.07;;
19869;SDS011;10097;50.862;4.696;2024-03-02T10:04:59;7.00;;;1.00;;
19869;SDS011;10097;50.862;4.696;2024-03-02T10:07:24;10.97;;;1.27;;
19869;SDS011;10097;50.862;4.696;2024-03-02T10:09:50;4.60;;;0.90;;
19869;SDS011;10097;50.862;4.696;2024-03-02T10:12:17;9.17;;;1.57;;
19869;SDS011;10097;50.862;4.696;2024-03-02T10:14:43;9.00;;;1.77;;
19869;SDS011;10097;50.862;4.696;2024-03-02T10:17:13;7.80;;;1.37;;
19869;SDS011;10097;50.862;4.696;2024-03-02T10:19:40;6.17;;;1.33;;
19869;SDS011;10097;50.862;4.696;2024-03-02T10:22:06;5.70;;;1.07;;
19869;SDS011;10097;50.862;4.696;2024-03-02T10:24:37;7.77;;;1.10;;
19869;SDS011;10097;50.862;4.696;2024-03-02T10:27:10;4.03;;;0.60;;
19869;SDS011;10097;50.862;4.696;2024-03-02T10:29:40;6.07;;;0.97;;
19869;SDS011;10097;50.862;4.696;2024-03-02T10:32:08;6.53;;;1.10;;
19869;SDS011;10097;50.862;4.696;2024-03-02T10:34:35;5.47;;;0.80;;
19869;SDS011;10097;50.862;4.696;2024-03-02T10:37:01;5.90;;;1.10;;
19869;SDS011;10097;50.862;4.696;2024-03-02T10:39:27;7.43;;;1.30;;
19869;SDS011;10097;50.862;4.696;2024-03-02T10:41:53;7.43;;;1.07;;
19869;SDS011;10097;50.862;4.696;2024-03-02T10:44:21;10.10;;;1.10;;
19869;SDS011;10097;50.862;4.696;2024-03-02T10:46:47;7.10;;;1.20;;
19869;SDS011;10097;50.862;4.696;2024-03-02T10:49:15;7.70;;;1.07;;
19869;SDS011;10097;50.862;4.696;2024-03-02T10:51:42;5.17;;;0.90;;
19869;SDS011;10097;50.862;4.696;2024-03-02T10:54:08;3.70;;;0.80;;
19869;SDS011;10097;50.862;4.696;2024-03-02T10:56:35;6.40;;;1.10;;
19869;SDS011;10097;50.862;4.696;2024-03-02T11:01:50;7.37;;;1.10;;
19869;SDS011;10097;50.862;4.696;2024-03-02T11:04:18;6.27;;;0.70;;
19869;SDS011;10097;50.862;4.696;2024-03-02T11:06:48;5.80;;;1.00;;
19869;SDS011;10097;50.862;4.696;2024-03-02T11:09:14;9.10;;;1.50;;
19869;SDS011;10097;50.862;4.696;2024-03-02T11:11:44;5.30;;;1.03;;
19869;SDS011;10097;50.862;4.696;2024-03-02T11:14:16;4.87;;;0.90;;
19869;SDS011;10097;50.862;4.696;2024-03-02T11:16:42;6.07;;;0.80;;
19869;SDS011;10097;50.862;4.696;2024-03-02T11:19:10;6.83;;;0.87;;
19869;SDS011;10097;50.862;4.696;2024-03-02T11:21:37;10.27;;;1.50;;
19869;SDS011;10097;50.862;4.696;2024-03-02T11:26:48;10.73;;;1.73;;
19869;SDS011;10097;50.862;4.696;2024-03-02T11:32:22;8.00;;;1.30;;
19869;SDS011;10097;50.862;4.696;2024-03-02T11:34:49;9.33;;;1.20;;
19869;SDS011;10097;50.862;4.696;2024-03-02T11:37:16;7.50;;;1.17;;
19869;SDS011;10097;50.862;4.696;2024-03-02T11:39:44;4.87;;;0.97;;
19869;SDS011;10097;50.862;4.696;2024-03-02T11:42:10;4.17;;;0.80;;
19869;SDS011;10097;50.862;4.696;2024-03-02T11:44:39;2.73;;;0.73;;
19869;SDS011;10097;50.862;4.696;2024-03-02T11:47:06;8.17;;;1.03;;
19869;SDS011;10097;50.862;4.696;2024-03-02T11:49:46;4.70;;;0.73;;
19869;SDS011;10097;50.862;4.696;2024-03-02T11:52:15;5.90;;;1.00;;
19869;SDS011;10097;50.862;4.696;2024-03-02T11:54:43;9.67;;;1.30;;
19869;SDS011;10097;50.862;4.696;2024-03-02T11:57:14;8.97;;;1.27;;
19869;SDS011;10097;50.862;4.696;2024-03-02T11:59:41;15.00;;;1.47;;
19869;SDS011;10097;50.862;4.696;2024-03-02T12:02:12;6.03;;;0.98;;
19869;SDS011;10097;50.862;4.696;2024-03-02T12:04:43;6.57;;;1.17;;
19869;SDS011;10097;50.862;4.696;2024-03-02T12:07:10;6.40;;;1.00;;
19869;SDS011;10097;50.862;4.696;2024-03-02T12:09:36;5.03;;;0.80;;
19869;SDS011;10097;50.862;4.696;2024-03-02T12:12:06;5.50;;;0.80;;
19869;SDS011;10097;50.862;4.696;2024-03-02T12:14:33;5.80;;;1.00;;
19869;SDS011;10097;50.862;4.696;2024-03-02T12:17:00;8.10;;;1.35;;
19869;SDS011;10097;50.862;4.696;2024-03-02T12:19:26;6.45;;;1.48;;
19869;SDS011;10097;50.862;4.696;2024-03-02T12:21:54;6.15;;;1.13;;
19869;SDS011;10097;50.862;4.696;2024-03-02T12:24:26;9.02;;;1.20;;
19869;SDS011;10097;50.862;4.696;2024-03-02T12:26:52;5.03;;;0.65;;
19869;SDS011;10097;50.862;4.696;2024-03-02T12:29:19;6.68;;;1.20;;
19869;SDS011;10097;50.862;4.696;2024-03-02T12:31:47;5.32;;;0.95;;
19869;SDS011;10097;50.862;4.696;2024-03-02T12:34:17;6.78;;;1.10;;
19869;SDS011;10097;50.862;4.696;2024-03-02T12:36:45;7.53;;;1.20;;
19869;SDS011;10097;50.862;4.696;2024-03-02T12:39:14;6.50;;;0.77;;
19869;SDS011;10097;50.862;4.696;2024-03-02T12:41:41;4.80;;;1.17;;
19869;SDS011;10097;50.862;4.696;2024-03-02T12:44:07;6.80;;;0.90;;
19869;SDS011;10097;50.862;4.696;2024-03-02T12:46:33;7.93;;;1.10;;
19869;SDS011;10097;50.862;4.696;2024-03-02T12:49:04;7.68;;;1.00;;
19869;SDS011;10097;50.862;4.696;2024-03-02T12:51:33;3.80;;;0.70;;
19869;SDS011;10097;50.862;4.696;2024-03-02T12:53:59;7.05;;;1.00;;
19869;SDS011;10097;50.862;4.696;2024-03-02T12:56:25;4.47;;;0.80;;
19869;SDS011;10097;50.862;4.696;2024-03-02T12:58:55;7.00;;;1.08;;
19869;SDS011;10097;50.862;4.696;2024-03-02T13:01:21;3.53;;;0.80;;
19869;SDS011;10097;50.862;4.696;2024-03-02T13:03:50;8.30;;;1.27;;
19869;SDS011;10097;50.862;4.696;2024-03-02T13:06:20;6.35;;;1.10;;
19869;SDS011;10097;50.862;4.696;2024-03-02T13:08:46;6.40;;;0.95;;
19869;SDS011;10097;50.862;4.696;2024-03-02T13:11:12;4.40;;;0.93;;
19869;SDS011;10097;50.862;4.696;2024-03-02T13:13:38;5.57;;;0.95;;
19869;SDS011;10097;50.862;4.696;2024-03-02T13:16:08;7.57;;;0.80;;
19869;SDS011;10097;50.862;4.696;2024-03-02T13:18:35;6.13;;;0.93;;
19869;SDS011;10097;50.862;4.696;2024-03-02T13:21:01;5.47;;;0.90;;
19869;SDS011;10097;50.862;4.696;2024-03-02T13:23:27;8.07;;;1.10;;
19869;SDS011;10097;50.862;4.696;2024-03-02T13:25:55;6.93;;;1.30;;
19869;SDS011;10097;50.862;4.696;2024-03-02T13:28:23;6.95;;;1.40;;
19869;SDS011;10097;50.862;4.696;2024-03-02T13:30:49;8.30;;;0.75;;
19869;SDS011;10097;50.862;4.696;2024-03-02T13:33:14;6.97;;;0.82;;
19869;SDS011;10097;50.862;4.696;2024-03-02T13:35:40;3.72;;;0.73;;
19869;SDS011;10097;50.862;4.696;2024-03-02T13:38:06;7.93;;;0.80;;
19869;SDS011;10097;50.862;4.696;2024-03-02T13:40:31;4.40;;;0.73;;
19869;SDS011;10097;50.862;4.696;2024-03-02T13:43:00;3.83;;;0.40;;
19869;SDS011;10097;50.862;4.696;2024-03-02T13:45:27;9.30;;;1.10;;
19869;SDS011;10097;50.862;4.696;2024-03-02T13:47:53;5.18;;;0.80;;
19869;SDS011;10097;50.862;4.696;2024-03-02T13:50:18;3.53;;;0.70;;
19869;SDS011;10097;50.862;4.696;2024-03-02T13:52:45;4.03;;;0.77;;
19869;SDS011;10097;50.862;4.696;2024-03-02T13:55:10;2.40;;;0.50;;
19869;SDS011;10097;50.862;4.696;2024-03-02T13:57:36;4.18;;;0.77;;
19869;SDS011;10097;50.862;4.696;2024-03-02T14:00:02;3.90;;;0.60;;
19869;SDS011;10097;50.862;4.696;2024-03-02T14:02:28;2.60;;;0.50;;
19869;SDS011;10097;50.862;4.696;2024-03-02T14:04:54;5.32;;;0.80;;
19869;SDS011;10097;50.862;4.696;2024-03-02T14:07:20;1.85;;;0.70;;
19869;SDS011;10097;50.862;4.696;2024-03-02T14:09:45;3.33;;;0.55;;
19869;SDS011;10097;50.862;4.696;2024-03-02T14:12:11;4.80;;;0.77;;
19869;SDS011;10097;50.862;4.696;2024-03-02T14:14:38;2.60;;;0.50;;
19869;SDS011;10097;50.862;4.696;2024-03-02T14:17:04;4.45;;;0.65;;
19869;SDS011;10097;50.862;4.696;2024-03-02T14:19:31;3.55;;;0.68;;
19869;SDS011;10097;50.862;4.696;2024-03-02T14:21:57;1.88;;;0.52;;
19869;SDS011;10097;50.862;4.696;2024-03-02T14:24:23;4.45;;;0.70;;
19869;SDS011;10097;50.862;4.696;2024-03-02T14:26:51;4.15;;;0.88;;
19869;SDS011;10097;50.862;4.696;2024-03-02T14:29:19;4.28;;;0.55;;
19869;SDS011;10097;50.862;4.696;2024-03-02T14:31:45;2.53;;;0.80;;
19869;SDS011;10097;50.862;4.696;2024-03-02T14:34:13;2.85;;;0.50;;
19869;SDS011;10097;50.862;4.696;2024-03-02T14:36:39;3.17;;;0.60;;
19869;SDS011;10097;50.862;4.696;2024-03-02T14:39:06;3.78;;;0.57;;
19869;SDS011;10097;50.862;4.696;2024-03-02T14:41:35;7.45;;;1.33;;
19869;SDS011;10097;50.862;4.696;2024-03-02T14:44:01;4.60;;;0.93;;
19869;SDS011;10097;50.862;4.696;2024-03-02T14:46:27;4.15;;;0.90;;
19869;SDS011;10097;50.862;4.696;2024-03-02T14:48:52;7.45;;;0.98;;
19869;SDS011;10097;50.862;4.696;2024-03-02T14:51:18;1.75;;;0.50;;
19869;SDS011;10097;50.862;4.696;2024-03-02T14:53:44;3.15;;;0.52;;
19869;SDS011;10097;50.862;4.696;2024-03-02T14:56:09;4.28;;;0.85;;